sensor_id;sensor_type;location;lat;lon;timestamp;pressure;altitude;pressure_sealevel;temperature;humidity
61528;BME280;47395;42.032;-8.634;2022-09-09T00:01:17;101339.81;;;21.41;77.23
61528;BME280;47395;42.032;-8.634;2022-09-09T00:03:37;101344.72;;;21.35;77.56
61528;BME280;47395;42.032;-8.634;2022-09-09T00:05:58;101338.66;;;21.33;77.62
61528;BME280;47395;42.032;-8.634;2022-09-09T00:08:02;101343.59;;;21.38;77.48
61528;BME280;47395;42.032;-8.634;2022-09-09T00:10:33;101347.38;;;21.35;77.39
61528;BME280;47395;42.032;-8.634;2022-09-09T00:13:00;101341.00;;;21.26;78.12
61528;BME280;47395;42.032;-8.634;2022-09-09T00:15:07;101341.13;;;21.25;78.48
61528;BME280;47395;42.032;-8.634;2022-09-09T00:17:39;101336.75;;;21.24;77.47
61528;BME280;47395;42.032;-8.634;2022-09-09T00:19:58;101334.56;;;21.18;76.63
61528;BME280;47395;42.032;-8.634;2022-09-09T00:22:19;101335.69;;;21.15;75.64
61528;BME280;47395;42.032;-8.634;2022-09-09T00:24:29;101346.41;;;21.15;75.50
61528;BME280;47395;42.032;-8.634;2022-09-09T00:26:42;101344.97;;;21.11;75.84
61528;BME280;47395;42.032;-8.634;2022-09-09T00:29:23;101347.34;;;21.25;74.69
61528;BME280;47395;42.032;-8.634;2022-09-09T00:31:29;101344.38;;;21.29;75.71
61528;BME280;47395;42.032;-8.634;2022-09-09T00:33:30;101355.72;;;21.32;76.69
61528;BME280;47395;42.032;-8.634;2022-09-09T00:35:35;101353.50;;;21.37;76.17
61528;BME280;47395;42.032;-8.634;2022-09-09T00:37:37;101351.25;;;21.43;76.20
61528;BME280;47395;42.032;-8.634;2022-09-09T00:39:43;101342.97;;;21.46;76.65
61528;BME280;47395;42.032;-8.634;2022-09-09T00:42:14;101352.94;;;21.44;76.32
61528;BME280;47395;42.032;-8.634;2022-09-09T00:44:30;101354.19;;;21.39;76.58
61528;BME280;47395;42.032;-8.634;2022-09-09T00:49:41;101361.00;;;21.22;77.56
61528;BME280;47395;42.032;-8.634;2022-09-09T00:52:31;101363.22;;;21.17;77.79
61528;BME280;47395;42.032;-8.634;2022-09-09T00:57:30;101361.78;;;21.13;78.25
61528;BME280;47395;42.032;-8.634;2022-09-09T00:59:48;101363.34;;;21.16;78.01
61528;BME280;47395;42.032;-8.634;2022-09-09T01:01:50;101364.56;;;21.11;78.10
61528;BME280;47395;42.032;-8.634;2022-09-09T01:03:55;101355.97;;;21.08;78.43
61528;BME280;47395;42.032;-8.634;2022-09-09T01:06:24;101357.66;;;21.09;78.36
61528;BME280;47395;42.032;-8.634;2022-09-09T01:11:12;101354.97;;;21.09;78.59
61528;BME280;47395;42.032;-8.634;2022-09-09T01:13:24;101347.06;;;21.07;78.67
61528;BME280;47395;42.032;-8.634;2022-09-09T01:15:30;101342.34;;;20.99;79.20
61528;BME280;47395;42.032;-8.634;2022-09-09T01:18:04;101347.84;;;20.98;79.12
61528;BME280;47395;42.032;-8.634;2022-09-09T01:20:15;101344.69;;;20.93;79.16
61528;BME280;47395;42.032;-8.634;2022-09-09T01:23:35;101341.75;;;20.96;78.90
61528;BME280;47395;42.032;-8.634;2022-09-09T01:26:21;101337.91;;;20.89;79.28
61528;BME280;47395;42.032;-8.634;2022-09-09T01:28:26;101346.63;;;20.91;79.21
61528;BME280;47395;42.032;-8.634;2022-09-09T01:30:38;101347.75;;;20.88;79.50
61528;BME280;47395;42.032;-8.634;2022-09-09T01:32:46;101347.97;;;20.85;79.80
61528;BME280;47395;42.032;-8.634;2022-09-09T01:34:47;101345.28;;;20.85;79.59
61528;BME280;47395;42.032;-8.634;2022-09-09T01:37:05;101342.88;;;20.82;79.68
61528;BME280;47395;42.032;-8.634;2022-09-09T01:39:06;101350.06;;;20.81;79.73
61528;BME280;47395;42.032;-8.634;2022-09-09T01:41:08;101347.13;;;20.84;79.65
61528;BME280;47395;42.032;-8.634;2022-09-09T01:43:21;101352.84;;;20.80;79.82
61528;BME280;47395;42.032;-8.634;2022-09-09T01:45:23;101351.63;;;20.84;79.75
61528;BME280;47395;42.032;-8.634;2022-09-09T01:47:25;101358.81;;;20.83;80.12
61528;BME280;47395;42.032;-8.634;2022-09-09T01:49:39;101357.09;;;20.82;79.72
61528;BME280;47395;42.032;-8.634;2022-09-09T01:51:53;101359.19;;;20.79;80.04
61528;BME280;47395;42.032;-8.634;2022-09-09T01:54:01;101357.50;;;20.78;79.82
61528;BME280;47395;42.032;-8.634;2022-09-09T02:04:44;101338.53;;;20.69;80.31
61528;BME280;47395;42.032;-8.634;2022-09-09T02:06:55;101344.41;;;20.63;80.19
61528;BME280;47395;42.032;-8.634;2022-09-09T02:09:03;101332.50;;;20.56;80.37
61528;BME280;47395;42.032;-8.634;2022-09-09T02:11:30;101337.72;;;20.57;80.84
61528;BME280;47395;42.032;-8.634;2022-09-09T02:13:51;101338.44;;;20.59;80.20
61528;BME280;47395;42.032;-8.634;2022-09-09T02:16:37;101328.81;;;20.57;80.18
61528;BME280;47395;42.032;-8.634;2022-09-09T02:18:53;101331.63;;;20.55;80.06
61528;BME280;47395;42.032;-8.634;2022-09-09T02:21:05;101328.94;;;20.55;80.23
61528;BME280;47395;42.032;-8.634;2022-09-09T02:23:08;101327.63;;;20.50;80.72
61528;BME280;47395;42.032;-8.634;2022-09-09T02:25:14;101336.38;;;20.52;80.29
61528;BME280;47395;42.032;-8.634;2022-09-09T02:27:18;101334.69;;;20.51;80.50
61528;BME280;47395;42.032;-8.634;2022-09-09T02:29:34;101329.59;;;20.47;80.52
61528;BME280;47395;42.032;-8.634;2022-09-09T02:31:36;101335.66;;;20.50;80.66
61528;BME280;47395;42.032;-8.634;2022-09-09T02:33:48;101337.09;;;20.54;80.20
61528;BME280;47395;42.032;-8.634;2022-09-09T02:35:52;101332.38;;;20.57;80.16
61528;BME280;47395;42.032;-8.634;2022-09-09T02:38:01;101332.84;;;20.63;80.07
61528;BME280;47395;42.032;-8.634;2022-09-09T02:40:06;101333.19;;;20.69;79.99
61528;BME280;47395;42.032;-8.634;2022-09-09T02:42:09;101334.41;;;20.65;79.88
61528;BME280;47395;42.032;-8.634;2022-09-09T02:44:12;101330.06;;;20.53;80.15
61528;BME280;47395;42.032;-8.634;2022-09-09T02:46:35;101332.78;;;20.41;80.33
61528;BME280;47395;42.032;-8.634;2022-09-09T02:51:06;101326.97;;;20.25;80.79
61528;BME280;47395;42.032;-8.634;2022-09-09T02:53:43;101342.53;;;20.19;80.64
61528;BME280;47395;42.032;-8.634;2022-09-09T02:55:56;101333.28;;;20.12;81.16
61528;BME280;47395;42.032;-8.634;2022-09-09T02:57:59;101336.94;;;20.11;81.34
61528;BME280;47395;42.032;-8.634;2022-09-09T03:00:03;101333.28;;;20.12;81.65
61528;BME280;47395;42.032;-8.634;2022-09-09T03:02:07;101334.50;;;20.08;81.42
61528;BME280;47395;42.032;-8.634;2022-09-09T03:04:09;101338.03;;;20.08;81.38
61528;BME280;47395;42.032;-8.634;2022-09-09T03:06:10;101331.13;;;20.06;81.07
61528;BME280;47395;42.032;-8.634;2022-09-09T03:08:13;101332.44;;;20.00;81.31
61528;BME280;47395;42.032;-8.634;2022-09-09T03:10:15;101332.56;;;19.99;81.05
61528;BME280;47395;42.032;-8.634;2022-09-09T03:12:16;101332.19;;;19.92;81.52
61528;BME280;47395;42.032;-8.634;2022-09-09T03:14:17;101330.38;;;19.92;80.71
61528;BME280;47395;42.032;-8.634;2022-09-09T03:16:22;101326.34;;;19.87;80.41
61528;BME280;47395;42.032;-8.634;2022-09-09T03:18:25;101325.97;;;19.80;81.00
61528;BME280;47395;42.032;-8.634;2022-09-09T03:20:29;101329.75;;;19.77;81.04
61528;BME280;47395;42.032;-8.634;2022-09-09T03:22:31;101324.63;;;19.74;81.25
61528;BME280;47395;42.032;-8.634;2022-09-09T03:24:34;101316.38;;;19.66;81.64
61528;BME280;47395;42.032;-8.634;2022-09-09T03:26:37;101313.91;;;19.63;81.64
61528;BME280;47395;42.032;-8.634;2022-09-09T03:28:41;101306.16;;;19.60;81.53
61528;BME280;47395;42.032;-8.634;2022-09-09T03:30:43;101321.72;;;19.54;81.91
61528;BME280;47395;42.032;-8.634;2022-09-09T03:32:43;101320.59;;;19.46;81.66
61528;BME280;47395;42.032;-8.634;2022-09-09T03:34:45;101318.63;;;19.36;81.06
61528;BME280;47395;42.032;-8.634;2022-09-09T03:36:50;101323.81;;;19.26;80.89
61528;BME280;47395;42.032;-8.634;2022-09-09T03:38:53;101311.78;;;19.21;81.13
61528;BME280;47395;42.032;-8.634;2022-09-09T03:40:56;101310.94;;;19.20;80.94
61528;BME280;47395;42.032;-8.634;2022-09-09T03:43:01;101307.03;;;19.13;81.08
61528;BME280;47395;42.032;-8.634;2022-09-09T03:45:07;101314.06;;;19.14;81.44
61528;BME280;47395;42.032;-8.634;2022-09-09T03:47:10;101316.34;;;19.07;81.94
61528;BME280;47395;42.032;-8.634;2022-09-09T03:49:11;101315.81;;;19.02;81.97
61528;BME280;47395;42.032;-8.634;2022-09-09T03:51:12;101311.47;;;19.01;81.98
61528;BME280;47395;42.032;-8.634;2022-09-09T03:53:17;101317.22;;;19.08;81.99
61528;BME280;47395;42.032;-8.634;2022-09-09T03:55:18;101318.38;;;19.03;81.91
61528;BME280;47395;42.032;-8.634;2022-09-09T03:57:20;101318.38;;;19.03;82.30
61528;BME280;47395;42.032;-8.634;2022-09-09T03:59:21;101308.69;;;19.02;81.97
61528;BME280;47395;42.032;-8.634;2022-09-09T04:03:48;101309.13;;;18.96;81.27
61528;BME280;47395;42.032;-8.634;2022-09-09T04:05:49;101308.00;;;18.87;81.49
61528;BME280;47395;42.032;-8.634;2022-09-09T04:07:50;101310.28;;;18.81;81.16
61528;BME280;47395;42.032;-8.634;2022-09-09T04:09:52;101313.53;;;18.73;81.78
61528;BME280;47395;42.032;-8.634;2022-09-09T04:11:53;101310.34;;;18.68;81.84
61528;BME280;47395;42.032;-8.634;2022-09-09T04:13:55;101314.88;;;18.78;80.90
61528;BME280;47395;42.032;-8.634;2022-09-09T04:15:58;101307.91;;;18.89;80.02
61528;BME280;47395;42.032;-8.634;2022-09-09T04:17:59;101310.78;;;18.86;79.76
61528;BME280;47395;42.032;-8.634;2022-09-09T04:20:02;101322.72;;;18.93;79.35
61528;BME280;47395;42.032;-8.634;2022-09-09T04:22:03;101315.41;;;18.84;79.78
61528;BME280;47395;42.032;-8.634;2022-09-09T04:24:05;101315.28;;;18.85;80.17
61528;BME280;47395;42.032;-8.634;2022-09-09T04:26:06;101316.88;;;18.88;80.76
61528;BME280;47395;42.032;-8.634;2022-09-09T04:28:08;101317.66;;;19.01;80.80
61528;BME280;47395;42.032;-8.634;2022-09-09T04:30:09;101324.38;;;19.07;81.31
61528;BME280;47395;42.032;-8.634;2022-09-09T04:32:11;101318.00;;;19.21;81.47
61528;BME280;47395;42.032;-8.634;2022-09-09T04:34:13;101321.66;;;19.31;81.24
61528;BME280;47395;42.032;-8.634;2022-09-09T04:36:15;101318.97;;;19.31;81.24
61528;BME280;47395;42.032;-8.634;2022-09-09T04:38:17;101320.22;;;19.39;81.35
61528;BME280;47395;42.032;-8.634;2022-09-09T04:40:18;101323.00;;;19.37;80.97
61528;BME280;47395;42.032;-8.634;2022-09-09T04:42:20;101320.16;;;19.16;81.81
61528;BME280;47395;42.032;-8.634;2022-09-09T04:44:21;101320.97;;;19.05;82.06
61528;BME280;47395;42.032;-8.634;2022-09-09T04:46:23;101322.63;;;18.95;82.20
61528;BME280;47395;42.032;-8.634;2022-09-09T04:48:24;101319.41;;;18.89;82.20
61528;BME280;47395;42.032;-8.634;2022-09-09T04:50:25;101319.19;;;18.92;82.10
61528;BME280;47395;42.032;-8.634;2022-09-09T04:52:34;101332.53;;;18.92;82.13
61528;BME280;47395;42.032;-8.634;2022-09-09T04:54:35;101335.22;;;18.92;81.85
61528;BME280;47395;42.032;-8.634;2022-09-09T04:56:36;101327.81;;;18.96;81.70
61528;BME280;47395;42.032;-8.634;2022-09-09T04:58:38;101331.34;;;18.97;81.50
61528;BME280;47395;42.032;-8.634;2022-09-09T05:00:40;101333.69;;;19.01;80.99
61528;BME280;47395;42.032;-8.634;2022-09-09T05:02:42;101335.50;;;19.01;81.36
61528;BME280;47395;42.032;-8.634;2022-09-09T05:04:43;101347.97;;;19.00;81.41
61528;BME280;47395;42.032;-8.634;2022-09-09T05:06:44;101342.75;;;18.99;81.30
61528;BME280;47395;42.032;-8.634;2022-09-09T05:08:47;101350.66;;;19.00;81.34
61528;BME280;47395;42.032;-8.634;2022-09-09T05:10:52;101353.97;;;19.04;81.51
61528;BME280;47395;42.032;-8.634;2022-09-09T05:12:53;101357.16;;;19.09;81.53
61528;BME280;47395;42.032;-8.634;2022-09-09T05:14:57;101358.38;;;19.16;81.09
61528;BME280;47395;42.032;-8.634;2022-09-09T05:16:57;101358.66;;;19.25;81.28
61528;BME280;47395;42.032;-8.634;2022-09-09T05:18:59;101358.66;;;19.25;80.83
61528;BME280;47395;42.032;-8.634;2022-09-09T05:21:03;101355.88;;;19.26;80.83
61528;BME280;47395;42.032;-8.634;2022-09-09T05:23:05;101362.69;;;19.30;80.85
61528;BME280;47395;42.032;-8.634;2022-09-09T05:25:07;101362.34;;;19.35;80.48
61528;BME280;47395;42.032;-8.634;2022-09-09T05:27:08;101357.50;;;19.40;80.26
61528;BME280;47395;42.032;-8.634;2022-09-09T05:29:13;101350.81;;;19.35;80.16
61528;BME280;47395;42.032;-8.634;2022-09-09T05:31:15;101349.34;;;19.30;80.07
61528;BME280;47395;42.032;-8.634;2022-09-09T05:33:18;101349.06;;;19.22;80.15
61528;BME280;47395;42.032;-8.634;2022-09-09T05:35:19;101338.25;;;19.12;80.31
61528;BME280;47395;42.032;-8.634;2022-09-09T05:37:21;101342.94;;;19.09;80.66
61528;BME280;47395;42.032;-8.634;2022-09-09T05:39:23;101336.34;;;19.01;80.73
61528;BME280;47395;42.032;-8.634;2022-09-09T05:41:24;101345.56;;;18.97;80.65
61528;BME280;47395;42.032;-8.634;2022-09-09T05:43:29;101337.88;;;18.92;80.96
61528;BME280;47395;42.032;-8.634;2022-09-09T05:45:30;101336.41;;;18.88;81.01
61528;BME280;47395;42.032;-8.634;2022-09-09T05:47:31;101334.94;;;18.84;80.75
61528;BME280;47395;42.032;-8.634;2022-09-09T05:49:32;101328.00;;;18.82;80.93
61528;BME280;47395;42.032;-8.634;2022-09-09T05:51:33;101329.09;;;18.79;81.17
61528;BME280;47395;42.032;-8.634;2022-09-09T05:53:42;101337.97;;;18.79;81.53
61528;BME280;47395;42.032;-8.634;2022-09-09T05:55:44;101347.06;;;18.77;81.34
61528;BME280;47395;42.032;-8.634;2022-09-09T05:57:48;101349.56;;;18.78;81.53
61528;BME280;47395;42.032;-8.634;2022-09-09T05:59:50;101349.25;;;18.83;81.13
61528;BME280;47395;42.032;-8.634;2022-09-09T06:01:50;101356.06;;;18.87;80.87
61528;BME280;47395;42.032;-8.634;2022-09-09T06:04:01;101352.22;;;18.91;80.77
61528;BME280;47395;42.032;-8.634;2022-09-09T06:06:05;101346.13;;;18.89;80.92
61528;BME280;47395;42.032;-8.634;2022-09-09T06:08:07;101345.91;;;18.92;80.74
61528;BME280;47395;42.032;-8.634;2022-09-09T06:10:08;101349.03;;;18.86;80.97
61528;BME280;47395;42.032;-8.634;2022-09-09T06:12:09;101350.50;;;18.90;80.72
61528;BME280;47395;42.032;-8.634;2022-09-09T06:14:11;101343.22;;;18.92;80.49
61528;BME280;47395;42.032;-8.634;2022-09-09T06:16:16;101343.59;;;18.88;80.17
61528;BME280;47395;42.032;-8.634;2022-09-09T06:18:18;101348.66;;;18.91;80.18
61528;BME280;47395;42.032;-8.634;2022-09-09T06:20:19;101354.00;;;18.91;80.07
61528;BME280;47395;42.032;-8.634;2022-09-09T06:22:20;101361.41;;;18.87;80.17
61528;BME280;47395;42.032;-8.634;2022-09-09T06:24:21;101359.47;;;18.89;80.02
61528;BME280;47395;42.032;-8.634;2022-09-09T06:26:25;101357.94;;;18.98;79.48
61528;BME280;47395;42.032;-8.634;2022-09-09T06:28:27;101363.91;;;19.02;79.13
61528;BME280;47395;42.032;-8.634;2022-09-09T06:30:28;101366.38;;;19.05;79.35
61528;BME280;47395;42.032;-8.634;2022-09-09T06:32:30;101363.88;;;19.15;78.72
61528;BME280;47395;42.032;-8.634;2022-09-09T06:34:35;101370.53;;;19.21;78.41
61528;BME280;47395;42.032;-8.634;2022-09-09T06:36:38;101364.47;;;19.18;78.93
61528;BME280;47395;42.032;-8.634;2022-09-09T06:38:39;101370.81;;;19.29;78.49
61528;BME280;47395;42.032;-8.634;2022-09-09T06:40:40;101371.19;;;19.36;78.41
61528;BME280;47395;42.032;-8.634;2022-09-09T06:42:42;101370.97;;;19.39;78.25
61528;BME280;47395;42.032;-8.634;2022-09-09T06:44:57;101377.44;;;19.48;77.86
61528;BME280;47395;42.032;-8.634;2022-09-09T06:47:18;101373.44;;;19.53;77.62
61528;BME280;47395;42.032;-8.634;2022-09-09T06:49:20;101383.53;;;19.50;77.94
61528;BME280;47395;42.032;-8.634;2022-09-09T06:51:22;101377.69;;;19.56;77.97
61528;BME280;47395;42.032;-8.634;2022-09-09T06:53:24;101381.13;;;19.58;77.43
61528;BME280;47395;42.032;-8.634;2022-09-09T06:55:25;101384.41;;;19.62;77.46
61528;BME280;47395;42.032;-8.634;2022-09-09T06:57:26;101383.31;;;19.64;77.20
61528;BME280;47395;42.032;-8.634;2022-09-09T06:59:27;101384.53;;;19.72;77.43
61528;BME280;47395;42.032;-8.634;2022-09-09T07:01:34;101395.59;;;19.78;77.21
61528;BME280;47395;42.032;-8.634;2022-09-09T07:03:39;101387.72;;;19.88;77.31
61528;BME280;47395;42.032;-8.634;2022-09-09T07:05:40;101392.28;;;19.99;77.15
61528;BME280;47395;42.032;-8.634;2022-09-09T07:07:41;101393.84;;;20.13;76.63
61528;BME280;47395;42.032;-8.634;2022-09-09T07:09:44;101393.34;;;20.08;76.44
61528;BME280;47395;42.032;-8.634;2022-09-09T07:11:50;101392.38;;;20.09;76.42
61528;BME280;47395;42.032;-8.634;2022-09-09T07:13:54;101396.41;;;20.03;76.53
61528;BME280;47395;42.032;-8.634;2022-09-09T07:16:06;101388.69;;;19.87;76.48
61528;BME280;47395;42.032;-8.634;2022-09-09T07:18:07;101401.06;;;19.77;78.03
61528;BME280;47395;42.032;-8.634;2022-09-09T07:20:11;101402.00;;;20.23;76.47
61528;BME280;47395;42.032;-8.634;2022-09-09T07:22:13;101398.06;;;20.61;75.58
61528;BME280;47395;42.032;-8.634;2022-09-09T07:24:14;101397.03;;;20.85;74.45
61528;BME280;47395;42.032;-8.634;2022-09-09T07:26:18;101403.91;;;21.11;73.69
61528;BME280;47395;42.032;-8.634;2022-09-09T07:28:20;101399.97;;;21.48;72.06
61528;BME280;47395;42.032;-8.634;2022-09-09T07:30:21;101406.72;;;21.85;70.62
61528;BME280;47395;42.032;-8.634;2022-09-09T07:32:22;101404.72;;;22.08;69.82
61528;BME280;47395;42.032;-8.634;2022-09-09T07:34:23;101407.38;;;22.39;68.44
61528;BME280;47395;42.032;-8.634;2022-09-09T07:36:28;101413.06;;;22.46;68.20
61528;BME280;47395;42.032;-8.634;2022-09-09T07:38:32;101414.19;;;22.43;68.23
61528;BME280;47395;42.032;-8.634;2022-09-09T07:40:33;101414.13;;;22.34;68.77
61528;BME280;47395;42.032;-8.634;2022-09-09T07:42:37;101409.66;;;22.13;68.92
61528;BME280;47395;42.032;-8.634;2022-09-09T07:44:38;101410.59;;;22.02;69.21
61528;BME280;47395;42.032;-8.634;2022-09-09T07:46:48;101407.03;;;21.91;69.47
61528;BME280;47395;42.032;-8.634;2022-09-09T07:48:55;101411.16;;;21.96;69.08
61528;BME280;47395;42.032;-8.634;2022-09-09T07:51:15;101418.91;;;22.20;68.79
61528;BME280;47395;42.032;-8.634;2022-09-09T07:53:20;101409.22;;;22.90;66.06
61528;BME280;47395;42.032;-8.634;2022-09-09T07:55:23;101408.38;;;23.19;64.76
61528;BME280;47395;42.032;-8.634;2022-09-09T07:57:28;101410.06;;;23.20;65.14
61528;BME280;47395;42.032;-8.634;2022-09-09T07:59:31;101418.84;;;23.32;64.55
61528;BME280;47395;42.032;-8.634;2022-09-09T08:01:43;101410.94;;;23.40;64.25
61528;BME280;47395;42.032;-8.634;2022-09-09T08:03:46;101416.75;;;23.36;64.12
61528;BME280;47395;42.032;-8.634;2022-09-09T08:05:48;101412.63;;;23.31;64.23
61528;BME280;47395;42.032;-8.634;2022-09-09T08:07:49;101410.94;;;23.30;64.18
61528;BME280;47395;42.032;-8.634;2022-09-09T08:09:53;101414.63;;;23.29;63.94
61528;BME280;47395;42.032;-8.634;2022-09-09T08:12:02;101409.22;;;23.10;64.10
61528;BME280;47395;42.032;-8.634;2022-09-09T08:14:05;101411.50;;;23.54;63.27
61528;BME280;47395;42.032;-8.634;2022-09-09T08:16:13;101415.06;;;24.02;61.84
61528;BME280;47395;42.032;-8.634;2022-09-09T08:18:15;101412.00;;;24.25;61.35
61528;BME280;47395;42.032;-8.634;2022-09-09T08:20:16;101416.66;;;24.61;60.54
61528;BME280;47395;42.032;-8.634;2022-09-09T08:22:17;101417.34;;;25.27;58.44
61528;BME280;47395;42.032;-8.634;2022-09-09T08:24:18;101414.66;;;25.72;58.03
61528;BME280;47395;42.032;-8.634;2022-09-09T08:26:35;101420.78;;;26.17;55.09
61528;BME280;47395;42.032;-8.634;2022-09-09T08:28:37;101420.44;;;26.12;55.40
61528;BME280;47395;42.032;-8.634;2022-09-09T08:30:38;101420.72;;;25.74;55.97
61528;BME280;47395;42.032;-8.634;2022-09-09T08:32:39;101413.47;;;25.30;56.59
61528;BME280;47395;42.032;-8.634;2022-09-09T08:34:41;101422.25;;;24.96;58.09
61528;BME280;47395;42.032;-8.634;2022-09-09T08:36:49;101424.81;;;24.97;58.60
61528;BME280;47395;42.032;-8.634;2022-09-09T08:38:53;101427.19;;;25.19;57.94
61528;BME280;47395;42.032;-8.634;2022-09-09T08:41:03;101427.84;;;24.84;58.75
61528;BME280;47395;42.032;-8.634;2022-09-09T08:43:08;101424.25;;;25.12;58.81
61528;BME280;47395;42.032;-8.634;2022-09-09T08:45:29;101429.63;;;25.48;57.21
61528;BME280;47395;42.032;-8.634;2022-09-09T08:53:23;101441.38;;;27.46;51.55
61528;BME280;47395;42.032;-8.634;2022-09-09T08:55:50;101449.19;;;28.39;48.55
61528;BME280;47395;42.032;-8.634;2022-09-09T08:58:05;101450.53;;;28.44;48.01
61528;BME280;47395;42.032;-8.634;2022-09-09T09:00:10;101448.09;;;28.57;48.25
61528;BME280;47395;42.032;-8.634;2022-09-09T09:02:18;101446.00;;;28.99;46.61
61528;BME280;47395;42.032;-8.634;2022-09-09T09:04:50;101453.34;;;29.14;46.30
61528;BME280;47395;42.032;-8.634;2022-09-09T09:12:00;101458.19;;;31.87;40.70
61528;BME280;47395;42.032;-8.634;2022-09-09T09:14:23;101464.78;;;32.97;38.12
61528;BME280;47395;42.032;-8.634;2022-09-09T09:18:51;101465.00;;;36.35;32.09
61528;BME280;47395;42.032;-8.634;2022-09-09T09:21:05;101461.25;;;36.78;31.44
61528;BME280;47395;42.032;-8.634;2022-09-09T09:23:17;101463.94;;;37.64;29.54
61528;BME280;47395;42.032;-8.634;2022-09-09T09:25:23;101469.41;;;37.76;28.87
61528;BME280;47395;42.032;-8.634;2022-09-09T09:27:44;101470.66;;;36.40;30.93
61528;BME280;47395;42.032;-8.634;2022-09-09T09:29:54;101482.78;;;37.96;28.78
61528;BME280;47395;42.032;-8.634;2022-09-09T09:31:59;101469.72;;;38.56;28.18
61528;BME280;47395;42.032;-8.634;2022-09-09T09:34:03;101471.38;;;38.57;27.57
61528;BME280;47395;42.032;-8.634;2022-09-09T09:36:05;101477.56;;;40.02;26.17
61528;BME280;47395;42.032;-8.634;2022-09-09T09:38:20;101473.78;;;40.08;26.94
61528;BME280;47395;42.032;-8.634;2022-09-09T09:40:24;101481.16;;;40.75;24.79
61528;BME280;47395;42.032;-8.634;2022-09-09T09:42:26;101475.94;;;40.28;25.32
61528;BME280;47395;42.032;-8.634;2022-09-09T09:44:32;101480.53;;;40.95;24.26
61528;BME280;47395;42.032;-8.634;2022-09-09T09:46:41;101484.84;;;41.51;24.07
61528;BME280;47395;42.032;-8.634;2022-09-09T09:49:02;101481.44;;;41.06;24.13
61528;BME280;47395;42.032;-8.634;2022-09-09T09:51:10;101484.63;;;41.25;23.34
61528;BME280;47395;42.032;-8.634;2022-09-09T09:53:21;101479.16;;;41.73;23.23
61528;BME280;47395;42.032;-8.634;2022-09-09T09:55:25;101479.00;;;41.47;23.69
61528;BME280;47395;42.032;-8.634;2022-09-09T09:57:29;101481.69;;;41.32;23.46
61528;BME280;47395;42.032;-8.634;2022-09-09T09:59:35;101484.38;;;42.18;21.93
61528;BME280;47395;42.032;-8.634;2022-09-09T10:01:38;101487.91;;;41.55;23.82
61528;BME280;47395;42.032;-8.634;2022-09-09T10:03:54;101480.47;;;41.60;22.88
61528;BME280;47395;42.032;-8.634;2022-09-09T10:05:55;101483.16;;;41.12;23.65
61528;BME280;47395;42.032;-8.634;2022-09-09T10:08:11;101487.44;;;41.68;22.64
61528;BME280;47395;42.032;-8.634;2022-09-09T10:10:25;101477.97;;;41.21;22.74
61528;BME280;47395;42.032;-8.634;2022-09-09T10:13:18;101476.69;;;41.77;22.18
61528;BME280;47395;42.032;-8.634;2022-09-09T10:15:44;101480.16;;;40.86;23.67
61528;BME280;47395;42.032;-8.634;2022-09-09T10:18:05;101471.88;;;40.58;24.52
61528;BME280;47395;42.032;-8.634;2022-09-09T10:23:20;101474.19;;;42.45;22.13
61528;BME280;47395;42.032;-8.634;2022-09-09T10:25:29;101479.22;;;42.79;20.62
61528;BME280;47395;42.032;-8.634;2022-09-09T10:30:50;101477.19;;;43.89;20.03
61528;BME280;47395;42.032;-8.634;2022-09-09T10:33:10;101473.69;;;42.79;21.87
61528;BME280;47395;42.032;-8.634;2022-09-09T10:38:30;101464.53;;;42.68;21.19
61528;BME280;47395;42.032;-8.634;2022-09-09T10:40:41;101464.56;;;43.20;20.97
61528;BME280;47395;42.032;-8.634;2022-09-09T10:42:45;101458.16;;;43.30;20.41
61528;BME280;47395;42.032;-8.634;2022-09-09T10:47:42;101458.19;;;42.94;20.89
61528;BME280;47395;42.032;-8.634;2022-09-09T10:50:35;101463.28;;;43.94;20.00
61528;BME280;47395;42.032;-8.634;2022-09-09T10:55:16;101457.31;;;43.50;20.12
61528;BME280;47395;42.032;-8.634;2022-09-09T10:57:32;101447.88;;;43.41;19.89
61528;BME280;47395;42.032;-8.634;2022-09-09T10:59:41;101452.88;;;43.49;20.25
61528;BME280;47395;42.032;-8.634;2022-09-09T11:01:57;101449.03;;;43.03;19.99
61528;BME280;47395;42.032;-8.634;2022-09-09T11:04:11;101446.81;;;42.85;20.31
61528;BME280;47395;42.032;-8.634;2022-09-09T11:06:19;101450.97;;;42.87;19.58
61528;BME280;47395;42.032;-8.634;2022-09-09T11:08:26;101445.69;;;43.27;18.71
61528;BME280;47395;42.032;-8.634;2022-09-09T11:10:38;101435.09;;;41.56;20.11
61528;BME280;47395;42.032;-8.634;2022-09-09T11:12:43;101442.88;;;42.34;20.25
61528;BME280;47395;42.032;-8.634;2022-09-09T11:15:01;101439.88;;;43.18;18.64
61528;BME280;47395;42.032;-8.634;2022-09-09T11:17:06;101437.41;;;42.81;18.04
61528;BME280;47395;42.032;-8.634;2022-09-09T11:21:41;101437.56;;;42.22;18.90
61528;BME280;47395;42.032;-8.634;2022-09-09T11:23:54;101426.50;;;43.41;17.10
61528;BME280;47395;42.032;-8.634;2022-09-09T11:25:57;101425.50;;;42.64;17.56
61528;BME280;47395;42.032;-8.634;2022-09-09T11:31:16;101424.22;;;41.98;18.69
61528;BME280;47395;42.032;-8.634;2022-09-09T11:33:31;101425.69;;;42.21;17.33
61528;BME280;47395;42.032;-8.634;2022-09-09T11:36:02;101413.41;;;42.01;19.22
61528;BME280;47395;42.032;-8.634;2022-09-09T11:38:47;101416.00;;;42.34;18.73
61528;BME280;47395;42.032;-8.634;2022-09-09T11:40:29;101417.97;;;42.44;17.75
61528;BME280;47395;42.032;-8.634;2022-09-09T11:42:31;101407.16;;;42.48;18.01
61528;BME280;47395;42.032;-8.634;2022-09-09T11:44:32;101407.72;;;42.97;16.54
61528;BME280;47395;42.032;-8.634;2022-09-09T11:46:36;101408.56;;;43.13;15.97
61528;BME280;47395;42.032;-8.634;2022-09-09T11:48:41;101404.13;;;43.12;15.60
61528;BME280;47395;42.032;-8.634;2022-09-09T11:51:04;101404.69;;;42.57;16.00
61528;BME280;47395;42.032;-8.634;2022-09-09T11:53:19;101401.88;;;43.29;14.56
61528;BME280;47395;42.032;-8.634;2022-09-09T11:55:33;101402.47;;;43.00;14.87